^^
Griva, Peonia, Weather Station Historical Data
 
Daily Summary for March 19, 2019 Units:  Metric    English   Both
Daily Weekly Monthly Yearly Custom
  Current: High: Low: Average:
Temperature: 14.1 °C 20.1 °C 9.0 °C 14.1 °C
Dew Point: 10.7 °C 13.1 °C 7.7 °C 10.4 °C
Humidity: 80% 99% 55% 80%
Wind Speed: 3.5km/h 13.7km/h 0.0km/h 0.9km/h
Wind Gust: 12.2km/h 16.3km/h - -
WindSSW - - SSE
Pressure: 1013.4 hPa 1014.8 hPa 1011.4 hPa -
Precipitation: 0.0 mm      
Historical Graphs
 
 
Tabular Data for March 19, 2019
Time Temperature Dew Point Pressure Wind Wind Speed Wind Gust Humidity Rainfall Rate (Hourly) solar
00:04 10.2 °C 8.8 °C 1012.8 hPa Calm     91% 0.0 mm 0.00 W/m2
00:09 10.3 °C 8.9 °C 1012.8 hPa Calm     91% 0.0 mm 0.00 W/m2
00:14 10.3 °C 8.9 °C 1012.8 hPa Calm     91% 0.0 mm 0.00 W/m2
00:19 10.4 °C 9.2 °C 1012.8 hPa Calm     92% 0.0 mm 0.00 W/m2
00:24 10.4 °C 9.0 °C 1013.1 hPa Calm     91% 0.0 mm 0.00 W/m2
00:29 10.4 °C 9.0 °C 1012.8 hPa Calm     91% 0.0 mm 0.00 W/m2
00:34 10.3 °C 8.9 °C 1013.1 hPa Calm     91% 0.0 mm 0.00 W/m2
00:39 10.2 °C 9.0 °C 1012.8 hPa Calm     92% 0.0 mm 0.00 W/m2
00:44 10.1 °C 8.9 °C 1012.8 hPa Calm     92% 0.0 mm 0.00 W/m2
00:49 10.1 °C 8.9 °C 1012.8 hPa Calm     92% 0.0 mm 0.00 W/m2
00:54 10.0 °C 8.6 °C 1013.1 hPa Calm     91% 0.0 mm 0.00 W/m2
00:59 9.7 °C 8.3 °C 1013.1 hPa Calm     91% 0.0 mm 0.00 W/m2
01:04 9.7 °C 8.5 °C 1013.1 hPa Calm     92% 0.0 mm 0.00 W/m2
01:09 9.7 °C 9.1 °C 1012.8 hPa Calm     96% 0.0 mm 0.00 W/m2
01:14 9.6 °C 9.0 °C 1013.1 hPa Calm     96% 0.0 mm 0.00 W/m2
01:19 9.6 °C 9.0 °C 1013.1 hPa Calm     96% 0.0 mm 0.00 W/m2
01:24 9.6 °C 9.1 °C 1013.1 hPa Calm     97% 0.0 mm 0.00 W/m2
01:29 9.6 °C 9.1 °C 1013.1 hPa Calm     97% 0.0 mm 0.00 W/m2
01:34 9.6 °C 9.3 °C 1013.4 hPa Calm     98% 0.0 mm 0.00 W/m2
01:39 9.6 °C 9.3 °C 1013.1 hPa Calm     98% 0.0 mm 0.00 W/m2
01:44 9.6 °C 9.5 °C 1013.1 hPa Calm     99% 0.0 mm 0.00 W/m2
01:49 9.6 °C 9.5 °C 1013.1 hPa Calm     99% 0.0 mm 0.00 W/m2
01:54 9.5 °C 9.4 °C 1013.1 hPa Calm     99% 0.0 mm 0.00 W/m2
01:59 9.5 °C 9.4 °C 1013.1 hPa Calm     99% 0.0 mm 0.00 W/m2
02:04 9.5 °C 9.2 °C 1013.1 hPa Calm     98% 0.0 mm 0.00 W/m2
02:09 9.6 °C 9.5 °C 1013.1 hPa Calm     99% 0.0 mm 0.00 W/m2
02:14 9.6 °C 9.5 °C 1013.1 hPa Calm     99% 0.0 mm 0.00 W/m2
02:19 9.9 °C 9.7 °C 1013.1 hPa Calm     99% 0.0 mm 0.00 W/m2
02:24 9.9 °C 9.7 °C 1013.1 hPa Calm     99% 0.0 mm 0.00 W/m2
02:29 9.9 °C 9.7 °C 1013.1 hPa Calm     99% 0.0 mm 0.00 W/m2
02:34 9.8 °C 9.7 °C 1012.8 hPa Calm     99% 0.0 mm 0.00 W/m2
02:39 9.5 °C 9.4 °C 1012.8 hPa Calm     99% 0.0 mm 0.00 W/m2
02:44 9.5 °C 9.2 °C 1012.8 hPa Calm     98% 0.0 mm 0.00 W/m2
02:49 9.5 °C 9.4 °C 1012.8 hPa Calm     99% 0.0 mm 0.00 W/m2
02:54 9.6 °C 9.5 °C 1012.8 hPa Calm     99% 0.0 mm 0.00 W/m2
02:59 9.9 °C 9.7 °C 1012.8 hPa Calm     99% 0.0 mm 0.00 W/m2
03:04 9.9 °C 9.7 °C 1012.8 hPa Calm     99% 0.0 mm 0.00 W/m2
03:09 9.9 °C 9.7 °C 1012.8 hPa Calm     99% 0.0 mm 0.00 W/m2
03:14 9.9 °C 9.7 °C 1012.8 hPa Calm     99% 0.0 mm 0.00 W/m2
03:19 9.9 °C 9.7 °C 1012.8 hPa Calm     99% 0.0 mm 0.00 W/m2
03:24 9.9 °C 9.7 °C 1012.4 hPa Calm     99% 0.0 mm 0.00 W/m2
03:29 9.9 °C 9.7 °C 1012.4 hPa Calm     99% 0.0 mm 0.00 W/m2
03:34 9.8 °C 9.7 °C 1012.8 hPa Calm     99% 0.0 mm 0.00 W/m2
03:39 9.8 °C 9.7 °C 1012.8 hPa Calm     99% 0.0 mm 0.00 W/m2
03:44 9.7 °C 9.6 °C 1012.8 hPa Calm     99% 0.0 mm 0.00 W/m2
03:49 9.6 °C 9.5 °C 1012.8 hPa Calm     99% 0.0 mm 0.00 W/m2
03:54 9.6 °C 9.5 °C 1012.8 hPa Calm     99% 0.0 mm 0.00 W/m2
03:59 9.7 °C 9.6 °C 1012.8 hPa Calm     99% 0.0 mm 0.00 W/m2
04:04 9.7 °C 9.6 °C 1012.4 hPa Calm     99% 0.0 mm 0.00 W/m2
04:09 9.7 °C 9.6 °C 1012.8 hPa Calm     99% 0.0 mm 0.00 W/m2
04:14 9.7 °C 9.6 °C 1012.8 hPa Calm     99% 0.0 mm 0.00 W/m2
04:19 9.7 °C 9.6 °C 1012.8 hPa Calm     99% 0.0 mm 0.00 W/m2
04:24 10.0 °C 9.8 °C 1013.1 hPa Calm     99% 0.0 mm 0.00 W/m2
04:29 9.9 °C 9.7 °C 1013.1 hPa Calm     99% 0.0 mm 0.00 W/m2
04:34 9.9 °C 9.7 °C 1013.1 hPa Calm     99% 0.0 mm 0.00 W/m2
04:39 9.8 °C 9.7 °C 1013.1 hPa Calm     99% 0.0 mm 0.00 W/m2
04:44 9.7 °C 9.6 °C 1013.1 hPa Calm     99% 0.0 mm 0.00 W/m2
04:49 9.6 °C 9.5 °C 1013.1 hPa Calm     99% 0.0 mm 0.00 W/m2
04:54 9.6 °C 9.5 °C 1013.4 hPa Calm     99% 0.0 mm 0.00 W/m2
04:59 9.6 °C 9.5 °C 1013.4 hPa Calm     99% 0.0 mm 0.00 W/m2
05:04 9.4 °C 9.1 °C 1013.4 hPa Calm     98% 0.0 mm 0.00 W/m2
05:09 9.3 °C 8.8 °C 1013.1 hPa Calm     97% 0.0 mm 0.00 W/m2
05:14 9.3 °C 9.0 °C 1013.4 hPa Calm     98% 0.0 mm 0.00 W/m2
05:19 9.3 °C 9.0 °C 1013.4 hPa Calm     98% 0.0 mm 0.00 W/m2
05:24 9.4 °C 9.1 °C 1013.4 hPa Calm     98% 0.0 mm 0.00 W/m2
05:29 9.4 °C 9.1 °C 1013.4 hPa Calm     98% 0.0 mm 0.00 W/m2
05:34 9.4 °C 9.3 °C 1013.4 hPa Calm     99% 0.0 mm 0.00 W/m2
05:39 9.3 °C 9.2 °C 1013.4 hPa Calm     99% 0.0 mm 0.00 W/m2
05:44 9.2 °C 9.1 °C 1013.4 hPa Calm     99% 0.0 mm 0.00 W/m2
05:49 9.2 °C 9.1 °C 1013.4 hPa Calm     99% 0.0 mm 0.00 W/m2
05:54 9.2 °C 9.1 °C 1013.4 hPa Calm     99% 0.0 mm 0.00 W/m2
05:59 9.2 °C 9.1 °C 1013.4 hPa Calm     99% 0.0 mm 0.00 W/m2
06:04 9.0 °C 8.9 °C 1013.4 hPa Calm     99% 0.0 mm 0.00 W/m2
06:09 9.0 °C 8.9 °C 1013.4 hPa Calm     99% 0.0 mm 0.00 W/m2
06:14 9.1 °C 8.3 °C 1013.4 hPa Calm     95% 0.0 mm 0.00 W/m2
06:19 9.1 °C 7.7 °C 1013.4 hPa Calm     91% 0.0 mm 0.00 W/m2
06:24 9.8 °C 7.9 °C 1013.4 hPa Calm     88% 0.0 mm 0.00 W/m2
06:29 9.8 °C 7.9 °C 1013.4 hPa Calm     88% 0.0 mm 0.00 W/m2
06:34 9.9 °C 8.0 °C 1013.4 hPa Calm     88% 0.0 mm 0.00 W/m2
06:39 9.9 °C 8.2 °C 1013.4 hPa Calm     89% 0.0 mm 2.00 W/m2
06:44 10.1 °C 8.4 °C 1013.4 hPa Calm     89% 0.0 mm 5.00 W/m2
06:49 10.1 °C 8.5 °C 1013.4 hPa Calm     90% 0.0 mm 8.00 W/m2
06:54 10.1 °C 8.5 °C 1013.8 hPa Calm     90% 0.0 mm 13.00 W/m2
06:59 10.1 °C 8.7 °C 1013.8 hPa Calm     91% 0.0 mm 20.00 W/m2
07:04 10.3 °C 8.7 °C 1013.8 hPa Calm     90% 0.0 mm 18.00 W/m2
07:09 10.3 °C 8.9 °C 1013.8 hPa Calm     91% 0.0 mm 22.00 W/m2
07:14 10.3 °C 9.1 °C 1014.1 hPa Calm     92% 0.0 mm 46.00 W/m2
07:19 10.4 °C 9.2 °C 1014.1 hPa Calm     92% 0.0 mm 54.00 W/m2
07:24 11.5 °C 9.9 °C 1014.1 hPa Calm     90% 0.0 mm 62.00 W/m2
07:29 11.6 °C 9.3 °C 1014.1 hPa Calm     86% 0.0 mm 69.00 W/m2
07:34 11.8 °C 9.4 °C 1014.4 hPa Calm     85% 0.0 mm 76.00 W/m2
07:39 12.1 °C 9.1 °C 1014.1 hPa Calm     82% 0.0 mm 81.00 W/m2
07:44 13.8 °C 10.8 °C 1014.1 hPa Calm     82% 0.0 mm 85.00 W/m2
07:49 13.8 °C 11.3 °C 1014.1 hPa Calm     85% 0.0 mm 89.00 W/m2
07:54 13.7 °C 11.6 °C 1014.1 hPa Calm     87% 0.0 mm 93.00 W/m2
07:59 13.6 °C 11.6 °C 1014.4 hPa Calm     88% 0.0 mm 95.00 W/m2
08:04 13.6 °C 11.6 °C 1014.1 hPa Calm     88% 0.0 mm 98.00 W/m2
08:09 13.5 °C 11.9 °C 1014.4 hPa Calm     90% 0.0 mm 104.00 W/m2
08:14 13.4 °C 11.6 °C 1014.1 hPa Calm     89% 0.0 mm 104.00 W/m2
08:19 13.4 °C 11.3 °C 1014.4 hPa Calm     87% 0.0 mm 116.00 W/m2
08:24 13.9 °C 12.1 °C 1014.4 hPa Calm     89% 0.0 mm 110.00 W/m2
08:29 14.0 °C 11.5 °C 1014.4 hPa Calm     85% 0.0 mm 111.00 W/m2
08:34 14.1 °C 11.1 °C 1014.1 hPa Calm     82% 0.0 mm 114.00 W/m2
08:39 14.2 °C 11.7 °C 1014.1 hPa Calm     85% 0.0 mm 117.00 W/m2
08:44 14.3 °C 11.6 °C 1014.4 hPa Calm     84% 0.0 mm 121.00 W/m2
08:49 14.3 °C 11.5 °C 1014.4 hPa Calm   4.0 km/h 83% 0.0 mm 124.00 W/m2
08:54 14.5 °C 11.6 °C 1014.4 hPa Calm   7.9 km/h 83% 0.0 mm 129.00 W/m2
08:59 14.6 °C 12.1 °C 1014.4 hPa Calm   7.9 km/h 85% 0.0 mm 133.00 W/m2
09:04 14.9 °C 12.0 °C 1014.4 hPa Calm   4.0 km/h 83% 0.0 mm 138.00 W/m2
09:09 14.9 °C 11.7 °C 1014.4 hPa Calm   4.0 km/h 81% 0.0 mm 143.00 W/m2
09:14 15.0 °C 11.6 °C 1014.4 hPa SSE 0.3 km/h 7.9 km/h 80% 0.0 mm 148.00 W/m2
09:19 15.1 °C 11.7 °C 1014.4 hPa SSE 7.2 km/h 12.2 km/h 80% 0.0 mm 155.00 W/m2
09:24 15.1 °C 11.9 °C 1014.4 hPa SE 2.9 km/h 7.9 km/h 81% 0.0 mm 160.00 W/m2
09:29 15.1 °C 11.7 °C 1014.4 hPa Calm   7.9 km/h 80% 0.0 mm 168.00 W/m2
09:34 15.1 °C 11.3 °C 1014.4 hPa Calm   4.0 km/h 78% 0.0 mm 175.00 W/m2
09:39 15.2 °C 11.8 °C 1014.4 hPa Calm     80% 0.0 mm 184.00 W/m2
09:44 15.2 °C 12.1 °C 1014.4 hPa Calm   4.0 km/h 82% 0.0 mm 190.00 W/m2
09:49 15.0 °C 12.9 °C 1014.8 hPa Calm   4.0 km/h 87% 0.0 mm 198.00 W/m2
09:54 14.8 °C 11.9 °C 1014.4 hPa SW 1.1 km/h 7.9 km/h 83% 0.0 mm 206.00 W/m2
09:59 14.6 °C 11.7 °C 1014.4 hPa Calm     83% 0.0 mm 214.00 W/m2
10:04 14.2 °C 11.4 °C 1014.8 hPa Calm   4.0 km/h 83% 0.0 mm 223.00 W/m2
10:09 14.2 °C 11.4 °C 1014.8 hPa Calm     83% 0.0 mm 234.00 W/m2
10:14 14.3 °C 10.9 °C 1014.8 hPa Calm     80% 0.0 mm 241.00 W/m2
10:19 14.5 °C 11.3 °C 1014.8 hPa East 4.0 km/h 7.9 km/h 81% 0.0 mm 252.00 W/m2
10:24 15.9 °C 12.3 °C 1014.8 hPa Calm   7.9 km/h 79% 0.0 mm 260.00 W/m2
10:29 15.8 °C 12.5 °C 1014.8 hPa East 2.1 km/h 7.9 km/h 81% 0.0 mm 267.00 W/m2
10:34 15.6 °C 12.5 °C 1014.4 hPa Calm   7.9 km/h 82% 0.0 mm 279.00 W/m2
10:39 15.5 °C 12.1 °C 1014.8 hPa ENE 2.1 km/h 12.2 km/h 80% 0.0 mm 288.00 W/m2
10:44 15.3 °C 11.9 °C 1014.4 hPa Calm   4.0 km/h 80% 0.0 mm 298.00 W/m2
10:49 15.3 °C 12.1 °C 1014.4 hPa NNE 5.5 km/h 7.9 km/h 81% 0.0 mm 310.00 W/m2
10:54 15.2 °C 12.1 °C 1014.4 hPa Calm   4.0 km/h 82% 0.0 mm 330.00 W/m2
10:59 15.2 °C 12.0 °C 1014.4 hPa Calm   4.0 km/h 81% 0.0 mm 309.00 W/m2
11:04 15.5 °C 11.7 °C 1014.4 hPa Calm     78% 0.0 mm 231.00 W/m2
11:09 15.6 °C 11.4 °C 1014.4 hPa Calm     76% 0.0 mm 351.00 W/m2
11:14 15.8 °C 10.8 °C 1014.4 hPa ENE 11.6 km/h 16.3 km/h 72% 0.0 mm 367.00 W/m2
11:19 15.9 °C 10.9 °C 1014.4 hPa East 1.4 km/h 7.9 km/h 72% 0.0 mm 382.00 W/m2
11:24 16.0 °C 10.5 °C 1014.1 hPa Calm   7.9 km/h 70% 0.0 mm 390.00 W/m2
11:29 16.0 °C 10.1 °C 1014.4 hPa Calm     68% 0.0 mm 410.00 W/m2
11:34 16.2 °C 10.1 °C 1014.4 hPa Calm   4.0 km/h 67% 0.0 mm 163.00 W/m2
11:39 16.4 °C 10.0 °C 1014.4 hPa Calm   4.0 km/h 66% 0.0 mm 435.00 W/m2
11:44 16.6 °C 10.7 °C 1014.1 hPa NNE 3.5 km/h 7.9 km/h 68% 0.0 mm 444.00 W/m2
11:49 16.6 °C 10.7 °C 1014.1 hPa Calm   7.9 km/h 68% 0.0 mm 444.00 W/m2
11:54 16.6 °C 10.4 °C 1014.1 hPa Calm   7.9 km/h 67% 0.0 mm 452.00 W/m2
11:59 16.7 °C 9.6 °C 1014.1 hPa ENE 5.0 km/h 7.9 km/h 63% 0.0 mm 457.00 W/m2
12:04 17.0 °C 9.7 °C 1014.1 hPa ESE 4.7 km/h 7.9 km/h 62% 0.0 mm 466.00 W/m2
12:09 17.0 °C 9.4 °C 1014.1 hPa SE 6.4 km/h 7.9 km/h 61% 0.0 mm 474.00 W/m2
12:14 17.2 °C 9.4 °C 1013.8 hPa Calm     60% 0.0 mm 472.00 W/m2
12:19 17.4 °C 9.6 °C 1013.8 hPa East 1.4 km/h 4.0 km/h 60% 0.0 mm 478.00 W/m2
12:24 18.2 °C 10.6 °C 1013.8 hPa NNE 4.0 km/h 7.9 km/h 61% 0.0 mm 484.00 W/m2
12:29 18.1 °C 10.5 °C 1013.8 hPa West 4.0 km/h 12.2 km/h 61% 0.0 mm 480.00 W/m2
12:34 18.1 °C 10.2 °C 1013.4 hPa Calm     60% 0.0 mm 432.00 W/m2
12:39 18.1 °C 9.7 °C 1013.8 hPa SSE 5.5 km/h 7.9 km/h 58% 0.0 mm 484.00 W/m2
12:44 18.6 °C 9.9 °C 1013.8 hPa East 2.1 km/h 7.9 km/h 57% 0.0 mm 482.00 W/m2
12:49 18.5 °C 10.1 °C 1013.8 hPa Calm   7.9 km/h 58% 0.0 mm 477.00 W/m2
12:54 18.4 °C 10.0 °C 1013.4 hPa Calm   4.0 km/h 58% 0.0 mm 482.00 W/m2
12:59 18.5 °C 9.8 °C 1013.4 hPa SE 2.6 km/h 4.0 km/h 57% 0.0 mm 482.00 W/m2
13:04 18.5 °C 9.3 °C 1013.4 hPa Calm     55% 0.0 mm 488.00 W/m2
13:09 19.3 °C 10.0 °C 1013.4 hPa Calm   7.9 km/h 55% 0.0 mm 499.00 W/m2
13:14 19.3 °C 10.0 °C 1013.4 hPa Calm   7.9 km/h 55% 0.0 mm 502.00 W/m2
13:19 19.3 °C 10.0 °C 1013.1 hPa SE 0.3 km/h 7.9 km/h 55% 0.0 mm 509.00 W/m2
13:24 19.4 °C 10.1 °C 1013.1 hPa East 1.1 km/h 4.0 km/h 55% 0.0 mm 511.00 W/m2
13:29 19.7 °C 11.2 °C 1013.1 hPa Calm   7.9 km/h 58% 0.0 mm 508.00 W/m2
13:34 19.7 °C 10.4 °C 1013.1 hPa SSE 0.3 km/h 7.9 km/h 55% 0.0 mm 517.00 W/m2
13:39 19.8 °C 10.5 °C 1012.8 hPa Calm   7.9 km/h 55% 0.0 mm 516.00 W/m2
13:44 19.8 °C 10.8 °C 1013.1 hPa Calm   4.0 km/h 56% 0.0 mm 511.00 W/m2
13:49 19.4 °C 10.4 °C 1012.8 hPa Calm   7.9 km/h 56% 0.0 mm 515.00 W/m2
13:54 19.5 °C 10.2 °C 1012.8 hPa Calm     55% 0.0 mm 511.00 W/m2
13:59 19.6 °C 10.3 °C 1012.8 hPa Calm   4.0 km/h 55% 0.0 mm 510.00 W/m2
14:04 19.6 °C 10.6 °C 1012.8 hPa Calm     56% 0.0 mm 435.00 W/m2
14:09 20.1 °C 11.0 °C 1012.4 hPa SE 2.6 km/h 16.3 km/h 56% 0.0 mm 152.00 W/m2
14:14 20.1 °C 11.0 °C 1012.8 hPa South 11.6 km/h 16.3 km/h 56% 0.0 mm 497.00 W/m2
14:19 20.1 °C 11.0 °C 1012.4 hPa WSW 5.0 km/h 12.2 km/h 56% 0.0 mm 494.00 W/m2
14:24 20.1 °C 11.6 °C 1012.4 hPa Calm   4.0 km/h 58% 0.0 mm 484.00 W/m2
14:29 20.1 °C 11.0 °C 1012.4 hPa Calm     56% 0.0 mm 474.00 W/m2
14:34 20.1 °C 11.6 °C 1012.4 hPa Calm   4.0 km/h 58% 0.0 mm 475.00 W/m2
14:39 20.1 °C 11.6 °C 1012.1 hPa SE 2.6 km/h 7.9 km/h 58% 0.0 mm 495.00 W/m2
14:44 20.0 °C 11.7 °C 1012.1 hPa Calm   7.9 km/h 59% 0.0 mm 276.00 W/m2
14:49 19.0 °C 11.3 °C 1012.1 hPa Calm   4.0 km/h 61% 0.0 mm 99.00 W/m2
14:54 19.0 °C 11.3 °C 1012.1 hPa Calm     61% 0.0 mm 107.00 W/m2
14:59 18.9 °C 11.5 °C 1012.4 hPa Calm     62% 0.0 mm 110.00 W/m2
15:04 18.8 °C 11.8 °C 1012.1 hPa South 4.0 km/h 12.2 km/h 64% 0.0 mm 115.00 W/m2
15:09 18.5 °C 11.3 °C 1012.1 hPa Calm     63% 0.0 mm 123.00 W/m2
15:14 18.5 °C 11.6 °C 1012.1 hPa SSW 3.5 km/h 12.2 km/h 64% 0.0 mm 131.00 W/m2
15:19 18.4 °C 12.6 °C 1012.1 hPa Calm     69% 0.0 mm 116.00 W/m2
15:24 18.4 °C 12.8 °C 1011.7 hPa Calm   4.0 km/h 70% 0.0 mm 102.00 W/m2
15:29 17.8 °C 12.9 °C 1012.1 hPa Calm     73% 0.0 mm 98.00 W/m2
15:34 17.8 °C 13.1 °C 1012.1 hPa Calm   7.9 km/h 74% 0.0 mm 110.00 W/m2
15:39 17.8 °C 12.5 °C 1012.1 hPa Calm   4.0 km/h 71% 0.0 mm 216.00 W/m2
15:44 17.8 °C 12.3 °C 1011.7 hPa Calm     70% 0.0 mm 166.00 W/m2
15:49 17.8 °C 12.5 °C 1011.7 hPa Calm     71% 0.0 mm 165.00 W/m2
15:54 17.9 °C 11.9 °C 1012.1 hPa SSE 2.1 km/h 4.0 km/h 68% 0.0 mm 393.00 W/m2
15:59 18.2 °C 11.3 °C 1011.7 hPa Calm     64% 0.0 mm 134.00 W/m2
16:04 18.4 °C 11.7 °C 1011.7 hPa Calm     65% 0.0 mm 136.00 W/m2
16:09 18.8 °C 12.1 °C 1011.7 hPa Calm   4.0 km/h 65% 0.0 mm 188.00 W/m2
16:14 18.8 °C 12.1 °C 1011.7 hPa Calm     65% 0.0 mm 83.00 W/m2
16:19 18.7 °C 12.2 °C 1011.7 hPa Calm     66% 0.0 mm 91.00 W/m2
16:24 18.5 °C 12.0 °C 1011.4 hPa Calm   4.0 km/h 66% 0.0 mm 96.00 W/m2
16:29 18.0 °C 11.3 °C 1011.7 hPa Calm     65% 0.0 mm 121.00 W/m2
16:34 18.1 °C 10.9 °C 1011.7 hPa Calm     63% 0.0 mm 350.00 W/m2
16:39 18.2 °C 10.3 °C 1011.7 hPa SE 1.4 km/h 4.0 km/h 60% 0.0 mm 336.00 W/m2
16:44 18.4 °C 10.2 °C 1011.7 hPa Calm   4.0 km/h 59% 0.0 mm 220.00 W/m2
16:49 19.1 °C 10.6 °C 1011.7 hPa Calm   4.0 km/h 58% 0.0 mm 253.00 W/m2
16:54 19.0 °C 10.8 °C 1011.7 hPa SSE 3.5 km/h 12.2 km/h 59% 0.0 mm 102.00 W/m2
16:59 18.9 °C 11.0 °C 1011.7 hPa SSE 1.1 km/h 4.0 km/h 60% 0.0 mm 96.00 W/m2
17:04 18.8 °C 10.9 °C 1011.7 hPa SSW 5.5 km/h 7.9 km/h 60% 0.0 mm 86.00 W/m2
17:09 18.1 °C 10.2 °C 1011.7 hPa Calm   7.9 km/h 60% 0.0 mm 77.00 W/m2
17:14 18.1 °C 10.5 °C 1011.7 hPa SSW 2.9 km/h 4.0 km/h 61% 0.0 mm 68.00 W/m2
17:19 18.0 °C 10.4 °C 1012.1 hPa SSE 7.2 km/h 12.2 km/h 61% 0.0 mm 64.00 W/m2
17:24 18.0 °C 10.6 °C 1012.1 hPa SSW 3.5 km/h 12.2 km/h 62% 0.0 mm 63.00 W/m2
17:29 17.5 °C 10.1 °C 1012.1 hPa Calm   4.0 km/h 62% 0.0 mm 63.00 W/m2
17:34 17.4 °C 10.0 °C 1012.1 hPa Calm     62% 0.0 mm 64.00 W/m2
17:39 17.4 °C 10.0 °C 1012.1 hPa Calm   4.0 km/h 62% 0.0 mm 57.00 W/m2
17:44 17.4 °C 10.3 °C 1012.1 hPa South 0.3 km/h 7.9 km/h 63% 0.0 mm 45.00 W/m2
17:49 17.1 °C 10.2 °C 1012.1 hPa South 6.4 km/h 12.2 km/h 64% 0.0 mm 40.00 W/m2
17:54 17.1 °C 11.4 °C 1012.1 hPa South 5.5 km/h 7.9 km/h 69% 0.0 mm 33.00 W/m2
17:59 17.0 °C 11.9 °C 1012.4 hPa SW 5.0 km/h 7.9 km/h 72% 0.0 mm 27.00 W/m2
18:04 16.8 °C 12.3 °C 1012.4 hPa SSW 2.6 km/h 7.9 km/h 75% 0.0 mm 22.00 W/m2
18:09 15.9 °C 11.5 °C 1012.4 hPa SW 5.5 km/h 7.9 km/h 75% 0.0 mm 18.00 W/m2
18:13 15.9 °C 11.5 °C 1012.4 hPa South 6.1 km/h 12.2 km/h 75% 0.0 mm 14.00 W/m2
18:19 15.9 °C 11.5 °C 1012.4 hPa SSW 5.0 km/h 12.2 km/h 75% 0.0 mm 11.00 W/m2
18:24 15.8 °C 11.6 °C 1012.4 hPa South 1.4 km/h 12.2 km/h 76% 0.0 mm 8.00 W/m2
18:29 15.2 °C 11.0 °C 1012.4 hPa South 13.7 km/h 16.3 km/h 76% 0.0 mm 5.00 W/m2
18:34 15.2 °C 11.0 °C 1012.8 hPa SSW 7.9 km/h 16.3 km/h 76% 0.0 mm 3.00 W/m2
18:39 15.2 °C 11.0 °C 1012.8 hPa South 2.6 km/h 7.9 km/h 76% 0.0 mm 0.00 W/m2
18:44 15.2 °C 11.0 °C 1013.1 hPa SSW 1.1 km/h 4.0 km/h 76% 0.0 mm 0.00 W/m2
18:49 14.9 °C 10.9 °C 1013.1 hPa Calm     77% 0.0 mm 0.00 W/m2
18:54 14.9 °C 10.9 °C 1013.1 hPa South 2.6 km/h 4.0 km/h 77% 0.0 mm 0.00 W/m2
18:59 14.8 °C 11.0 °C 1013.1 hPa Calm     78% 0.0 mm 0.00 W/m2
19:04 14.7 °C 11.1 °C 1013.4 hPa Calm     79% 0.0 mm 0.00 W/m2
19:09 14.2 °C 10.6 °C 1013.4 hPa Calm   12.2 km/h 79% 0.0 mm 0.00 W/m2
19:14 14.2 °C 10.6 °C 1013.4 hPa South 0.3 km/h 7.9 km/h 79% 0.0 mm 0.00 W/m2
19:19 14.1 °C 10.7 °C 1013.4 hPa SSW 3.5 km/h 12.2 km/h 80% 0.0 mm 0.00 W/m2
Griva, Peonia, Kilkis, Greece
Compliments of Weather Underground - 2 mb